Time,TemperatureF,DewpointF,PressureIn,WindDirection,WindDirectionDegrees,WindSpeedMPH,WindSpeedGustMPH,Humidity,HourlyPrecipIn,Conditions,Clouds,dailyrainin,SolarRadiationWatts/m^2,SoftwareType,DateUTC
2013-02-20 00:04:00,7.7,2.0,30.08,WNW,291,4.0,7.0,77,0.00,,,0.00,0,Wunderground v.1.15,2013-02-20 06:04:00,
2013-02-20 00:14:00,7.9,2.2,30.08,WNW,289,5.0,5.0,77,0.00,,,0.00,0,Wunderground v.1.15,2013-02-20 06:14:00,
2013-02-20 00:24:00,8.1,2.4,30.08,WNW,296,6.0,6.0,77,0.00,,,0.00,0,Wunderground v.1.15,2013-02-20 06:24:00,
2013-02-20 00:34:00,8.1,2.4,30.08,WNW,301,5.0,5.0,77,0.00,,,0.00,0,Wunderground v.1.15,2013-02-20 06:34:00,
2013-02-20 00:44:00,8.3,2.6,30.08,WNW,296,5.0,5.0,77,0.00,,,0.00,0,Wunderground v.1.15,2013-02-20 06:44:00,
2013-02-20 00:54:00,8.4,2.7,30.09,WNW,291,4.0,4.0,77,0.00,,,0.00,0,Wunderground v.1.15,2013-02-20 06:54:00,
2013-02-20 01:04:00,8.4,2.9,30.10,WNW,299,4.0,4.0,78,0.00,,,0.00,0,Wunderground v.1.15,2013-02-20 07:04:00,
2013-02-20 01:14:00,8.4,2.7,30.10,WNW,295,4.0,6.0,77,0.00,,,0.00,0,Wunderground v.1.15,2013-02-20 07:14:00,
2013-02-20 01:24:00,8.3,2.9,30.10,WNW,282,4.0,4.0,78,0.00,,,0.00,0,Wunderground v.1.15,2013-02-20 07:24:00,
2013-02-20 01:34:00,8.3,2.9,30.10,NW,323,4.0,4.0,78,0.00,,,0.00,0,Wunderground v.1.15,2013-02-20 07:34:00,
2013-02-20 01:44:00,8.4,2.7,30.10,NW,305,4.0,4.0,77,0.00,,,0.00,0,Wunderground v.1.15,2013-02-20 07:44:00,
2013-02-20 01:54:00,9.0,2.7,30.10,NNW,343,4.0,4.0,75,0.00,,,0.00,0,Wunderground v.1.15,2013-02-20 07:54:00,
2013-02-20 02:14:00,9.0,3.0,30.11,NW,306,3.0,3.0,76,0.00,,,0.00,0,Wunderground v.1.15,2013-02-20 08:14:00,
2013-02-20 02:24:00,9.0,3.0,30.11,NNW,339,3.0,5.0,76,0.00,,,0.00,0,Wunderground v.1.15,2013-02-20 08:24:00,
2013-02-20 02:34:00,9.3,3.3,30.12,NNW,337,4.0,5.0,76,0.00,,,0.00,0,Wunderground v.1.15,2013-02-20 08:34:00,
2013-02-20 02:44:00,9.2,3.2,30.12,North,350,4.0,4.0,76,0.00,,,0.00,0,Wunderground v.1.15,2013-02-20 08:44:00,
2013-02-20 02:54:00,9.0,3.3,30.13,NNW,337,3.0,3.0,77,0.00,,,0.00,0,Wunderground v.1.15,2013-02-20 08:54:00,
2013-02-20 03:04:00,9.2,3.4,30.14,NNW,343,4.0,6.0,77,0.00,,,0.00,0,Wunderground v.1.15,2013-02-20 09:04:00,
2013-02-20 03:14:00,9.2,3.4,30.14,NNW,337,4.0,4.0,77,0.00,,,0.00,0,Wunderground v.1.15,2013-02-20 09:14:00,
2013-02-20 03:24:00,9.5,4.0,30.15,NNW,339,5.0,5.0,78,0.00,,,0.00,0,Wunderground v.1.15,2013-02-20 09:24:00,
2013-02-20 03:34:00,9.9,4.1,30.16,North,0,5.0,7.0,77,0.00,,,0.00,0,Wunderground v.1.15,2013-02-20 09:34:00,
2013-02-20 03:44:00,10.2,4.1,30.16,NNW,342,7.0,7.0,76,0.00,,,0.00,0,Wunderground v.1.15,2013-02-20 09:44:00,
2013-02-20 03:54:00,10.2,3.8,30.16,NNW,335,6.0,6.0,75,0.00,,,0.00,0,Wunderground v.1.15,2013-02-20 09:54:00,
2013-02-20 04:04:00,10.5,3.8,30.17,NNW,333,7.0,7.0,74,0.00,,,0.00,0,Wunderground v.1.15,2013-02-20 10:04:00,
2013-02-20 04:14:00,10.5,3.8,30.17,NNW,328,6.0,11.0,74,0.00,,,0.00,0,Wunderground v.1.15,2013-02-20 10:14:00,
2013-02-20 04:24:00,10.7,4.9,30.18,NW,325,6.0,6.0,77,0.00,,,0.00,0,Wunderground v.1.15,2013-02-20 10:24:00,
2013-02-20 04:34:00,10.9,4.2,30.19,NW,313,6.0,6.0,74,0.00,,,0.00,0,Wunderground v.1.15,2013-02-20 10:34:00,
2013-02-20 04:44:00,10.9,4.5,30.19,NNW,333,6.0,6.0,75,0.00,,,0.00,0,Wunderground v.1.15,2013-02-20 10:44:00,
2013-02-20 04:54:00,11.1,5.3,30.19,NNW,333,5.0,5.0,77,0.00,,,0.00,0,Wunderground v.1.15,2013-02-20 10:54:00,
2013-02-20 05:04:00,11.1,5.0,30.20,NNW,343,5.0,7.0,76,0.00,,,0.00,0,Wunderground v.1.15,2013-02-20 11:04:00,
2013-02-20 05:14:00,11.1,4.7,30.20,NNW,333,6.0,7.0,75,0.00,,,0.00,0,Wunderground v.1.15,2013-02-20 11:14:00,
2013-02-20 05:24:00,10.9,4.5,30.21,NNW,330,5.0,5.0,75,0.00,,,0.00,0,Wunderground v.1.15,2013-02-20 11:24:00,
2013-02-20 05:34:00,10.9,4.5,30.21,NNW,340,4.0,4.0,75,0.00,,,0.00,0,Wunderground v.1.15,2013-02-20 11:34:00,
2013-02-20 05:44:00,10.9,4.5,30.21,NNW,330,4.0,4.0,75,0.00,,,0.00,0,Wunderground v.1.15,2013-02-20 11:44:00,
2013-02-20 05:54:00,10.7,4.0,30.21,NNW,328,5.0,5.0,74,0.00,,,0.00,0,Wunderground v.1.15,2013-02-20 11:54:00,
2013-02-20 06:04:00,10.5,3.8,30.21,NNW,332,6.0,8.0,74,0.00,,,0.00,0,Wunderground v.1.15,2013-02-20 12:04:00,
2013-02-20 06:14:00,10.5,4.1,30.21,NW,322,6.0,6.0,75,0.00,,,0.00,0,Wunderground v.1.15,2013-02-20 12:14:00,
2013-02-20 06:24:00,10.5,3.8,30.23,North,349,6.0,7.0,74,0.00,,,0.00,0,Wunderground v.1.15,2013-02-20 12:24:00,
2013-02-20 06:34:00,10.5,3.8,30.23,NNW,342,6.0,7.0,74,0.00,,,0.00,0,Wunderground v.1.15,2013-02-20 12:34:00,
2013-02-20 06:44:00,10.2,3.6,30.23,NW,320,5.0,6.0,74,0.00,,,0.00,0,Wunderground v.1.15,2013-02-20 12:44:00,
2013-02-20 06:54:00,10.0,3.4,30.23,NW,312,6.0,6.0,74,0.00,,,0.00,7,Wunderground v.1.15,2013-02-20 12:54:00,
2013-02-20 07:04:00,10.0,3.4,30.24,NNW,340,7.0,7.0,74,0.00,,,0.00,12,Wunderground v.1.15,2013-02-20 13:04:00,
2013-02-20 07:14:00,10.0,3.4,30.24,NNW,346,6.0,7.0,74,0.00,,,0.00,181,Wunderground v.1.15,2013-02-20 13:14:00,
2013-02-20 07:24:00,10.0,3.4,30.25,North,359,7.0,7.0,74,0.00,,,0.00,222,Wunderground v.1.15,2013-02-20 13:24:00,
2013-02-20 07:34:00,10.4,3.8,30.25,WNW,299,6.0,10.0,74,0.00,,,0.00,276,Wunderground v.1.15,2013-02-20 13:34:00,
2013-02-20 07:44:00,10.5,3.8,30.25,North,0,7.0,9.0,74,0.00,,,0.00,313,Wunderground v.1.15,2013-02-20 13:44:00,
2013-02-20 07:54:00,10.7,4.0,30.25,NNW,344,7.0,7.0,74,0.00,,,0.00,340,Wunderground v.1.15,2013-02-20 13:54:00,
2013-02-20 08:04:00,11.1,4.4,30.25,NW,315,6.0,8.0,74,0.00,,,0.00,366,Wunderground v.1.15,2013-02-20 14:04:00,
2013-02-20 08:14:00,11.1,4.1,30.25,NW,319,7.0,7.0,73,0.00,,,0.00,382,Wunderground v.1.15,2013-02-20 14:14:00,
2013-02-20 08:24:00,11.1,4.4,30.25,NNW,336,7.0,7.0,74,0.00,,,0.00,413,Wunderground v.1.15,2013-02-20 14:24:00,
2013-02-20 08:34:00,11.2,4.5,30.26,NNW,333,7.0,7.0,74,0.00,,,0.00,433,Wunderground v.1.15,2013-02-20 14:34:00,
2013-02-20 08:44:00,11.2,4.2,30.26,NNW,342,7.0,7.0,73,0.00,,,0.00,450,Wunderground v.1.15,2013-02-20 14:44:00,
2013-02-20 08:54:00,11.6,4.6,30.25,North,352,6.0,7.0,73,0.00,,,0.00,473,Wunderground v.1.15,2013-02-20 14:54:00,
2013-02-20 09:04:00,11.9,4.9,30.26,NNW,347,7.0,7.0,73,0.00,,,0.00,486,Wunderground v.1.15,2013-02-20 15:04:00,
2013-02-20 09:14:00,12.1,5.1,30.26,NNW,329,6.0,6.0,73,0.00,,,0.00,496,Wunderground v.1.15,2013-02-20 15:14:00,
2013-02-20 09:24:00,12.3,5.0,30.27,NNW,328,6.0,6.0,72,0.00,,,0.00,482,Wunderground v.1.15,2013-02-20 15:24:00,
2013-02-20 09:34:00,12.6,5.0,30.28,NNW,335,6.0,7.0,71,0.00,,,0.00,472,Wunderground v.1.15,2013-02-20 15:34:00,
2013-02-20 09:44:00,12.9,5.3,30.28,NNW,343,6.0,12.0,71,0.00,,,0.00,512,Wunderground v.1.15,2013-02-20 15:44:00,
2013-02-20 09:54:00,13.1,5.8,30.28,NW,311,8.0,8.0,72,0.00,,,0.00,343,Wunderground v.1.15,2013-02-20 15:54:00,
2013-02-20 10:04:00,13.3,6.0,30.28,NNW,340,7.0,7.0,72,0.00,,,0.00,419,Wunderground v.1.15,2013-02-20 16:04:00,
2013-02-20 10:14:00,13.8,6.1,30.28,NNW,328,8.0,11.0,71,0.00,,,0.00,475,Wunderground v.1.15,2013-02-20 16:14:00,
2013-02-20 10:24:00,14.3,6.6,30.28,NNW,329,10.0,12.0,71,0.00,,,0.00,509,Wunderground v.1.15,2013-02-20 16:24:00,
2013-02-20 10:34:00,14.3,6.6,30.28,NNW,340,11.0,11.0,71,0.00,,,0.00,433,Wunderground v.1.15,2013-02-20 16:34:00,
2013-02-20 10:44:00,14.4,6.4,30.28,NW,318,11.0,11.0,70,0.00,,,0.00,459,Wunderground v.1.15,2013-02-20 16:44:00,
2013-02-20 10:54:00,14.3,6.3,30.28,North,359,13.0,13.0,70,0.00,,,0.00,392,Wunderground v.1.15,2013-02-20 16:54:00,
2013-02-20 11:04:00,14.6,6.6,30.29,NNW,347,11.0,16.0,70,0.00,,,0.00,461,Wunderground v.1.15,2013-02-20 17:04:00,
2013-02-20 11:14:00,14.8,6.8,30.29,North,3,11.0,13.0,70,0.00,,,0.00,435,Wunderground v.1.15,2013-02-20 17:14:00,
2013-02-20 11:24:00,15.4,7.4,30.29,NNW,337,9.0,9.0,70,0.00,,,0.00,486,Wunderground v.1.15,2013-02-20 17:24:00,
2013-02-20 11:34:00,15.4,7.0,30.30,North,350,12.0,12.0,69,0.00,,,0.00,475,Wunderground v.1.15,2013-02-20 17:34:00,
2013-02-20 11:44:00,16.2,7.8,30.30,North,353,10.0,13.0,69,0.00,,,0.00,533,Wunderground v.1.15,2013-02-20 17:44:00,
2013-02-20 11:54:00,16.2,7.2,30.29,NNW,342,11.0,11.0,67,0.00,,,0.00,473,Wunderground v.1.15,2013-02-20 17:54:00,
2013-02-20 12:14:00,17.2,8.4,30.29,NNW,342,11.0,12.0,68,0.00,,,0.00,604,Wunderground v.1.15,2013-02-20 18:14:00,
2013-02-20 12:24:00,17.3,7.9,30.29,NNW,347,11.0,11.0,66,0.00,,,0.00,600,Wunderground v.1.15,2013-02-20 18:24:00,
2013-02-20 12:34:00,17.5,8.4,30.29,North,0,11.0,15.0,67,0.00,,,0.00,593,Wunderground v.1.15,2013-02-20 18:34:00,
2013-02-20 12:44:00,17.7,8.3,30.29,North,0,12.0,12.0,66,0.00,,,0.00,579,Wunderground v.1.15,2013-02-20 18:44:00,
2013-02-20 12:54:00,18.3,8.8,30.29,North,359,10.0,17.0,66,0.00,,,0.00,561,Wunderground v.1.15,2013-02-20 18:54:00,
2013-02-20 13:04:00,18.3,8.5,30.29,NNE,20,11.0,11.0,65,0.00,,,0.00,542,Wunderground v.1.15,2013-02-20 19:04:00,
2013-02-20 13:14:00,18.6,9.1,30.29,North,359,11.0,11.0,66,0.00,,,0.00,535,Wunderground v.1.15,2013-02-20 19:14:00,
2013-02-20 13:24:00,19.1,9.6,30.29,North,352,9.0,10.0,66,0.00,,,0.00,521,Wunderground v.1.15,2013-02-20 19:24:00,
2013-02-20 13:34:00,19.1,9.3,30.29,NNE,17,11.0,11.0,65,0.00,,,0.00,507,Wunderground v.1.15,2013-02-20 19:34:00,
2013-02-20 13:44:00,19.2,8.7,30.29,North,1,11.0,11.0,63,0.00,,,0.00,494,Wunderground v.1.15,2013-02-20 19:44:00,
2013-02-20 13:54:00,19.9,9.7,30.29,NNW,330,8.0,10.0,64,0.00,,,0.00,480,Wunderground v.1.15,2013-02-20 19:54:00,
2013-02-20 14:04:00,19.9,9.3,30.29,North,359,9.0,9.0,63,0.00,,,0.00,463,Wunderground v.1.15,2013-02-20 20:04:00,
2013-02-20 14:14:00,19.9,9.0,30.29,North,11,10.0,10.0,62,0.00,,,0.00,445,Wunderground v.1.15,2013-02-20 20:14:00,
2013-02-20 14:24:00,20.2,9.2,30.29,NNW,344,10.0,10.0,62,0.00,,,0.00,428,Wunderground v.1.15,2013-02-20 20:24:00,
2013-02-20 14:34:00,20.8,9.5,30.30,North,352,7.0,9.0,61,0.00,,,0.00,406,Wunderground v.1.15,2013-02-20 20:34:00,
2013-02-20 14:44:00,21.1,10.1,30.30,North,353,7.0,9.0,62,0.00,,,0.00,385,Wunderground v.1.15,2013-02-20 20:44:00,
2013-02-20 14:54:00,21.0,9.6,30.30,NW,325,10.0,12.0,61,0.00,,,0.00,362,Wunderground v.1.15,2013-02-20 20:54:00,
2013-02-20 15:04:00,21.3,10.3,30.31,NNW,339,8.0,8.0,62,0.00,,,0.00,340,Wunderground v.1.15,2013-02-20 21:04:00,
2013-02-20 15:14:00,21.4,10.4,30.31,North,350,8.0,8.0,62,0.00,,,0.00,315,Wunderground v.1.15,2013-02-20 21:14:00,
2013-02-20 15:24:00,21.4,9.7,30.32,NNW,343,8.0,8.0,60,0.00,,,0.00,289,Wunderground v.1.15,2013-02-20 21:24:00,
2013-02-20 15:34:00,21.6,10.2,30.32,NNW,337,8.0,8.0,61,0.00,,,0.00,264,Wunderground v.1.15,2013-02-20 21:34:00,
2013-02-20 15:44:00,21.8,10.8,30.32,North,359,6.0,7.0,62,0.00,,,0.00,238,Wunderground v.1.15,2013-02-20 21:44:00,
2013-02-20 15:54:00,21.9,10.5,30.33,North,349,7.0,9.0,61,0.00,,,0.00,211,Wunderground v.1.15,2013-02-20 21:54:00,
2013-02-20 16:04:00,21.9,10.5,30.34,North,4,7.0,7.0,61,0.00,,,0.00,183,Wunderground v.1.15,2013-02-20 22:04:00,
2013-02-20 16:14:00,22.1,10.3,30.34,North,349,6.0,7.0,60,0.00,,,0.00,155,Wunderground v.1.15,2013-02-20 22:14:00,
2013-02-20 16:24:00,21.9,9.7,30.34,North,1,6.0,6.0,59,0.00,,,0.00,130,Wunderground v.1.15,2013-02-20 22:24:00,
2013-02-20 16:34:00,21.6,9.8,30.34,North,0,7.0,7.0,60,0.00,,,0.00,104,Wunderground v.1.15,2013-02-20 22:34:00,
2013-02-20 16:44:00,21.4,10.0,30.34,North,359,6.0,7.0,61,0.00,,,0.00,76,Wunderground v.1.15,2013-02-20 22:44:00,
2013-02-20 16:54:00,21.1,9.7,30.35,North,359,5.0,5.0,61,0.00,,,0.00,48,Wunderground v.1.15,2013-02-20 22:54:00,
2013-02-20 17:04:00,20.8,9.5,30.35,North,356,6.0,6.0,61,0.00,,,0.00,32,Wunderground v.1.15,2013-02-20 23:04:00,
2013-02-20 17:14:00,20.2,9.2,30.35,NNW,344,5.0,5.0,62,0.00,,,0.00,7,Wunderground v.1.15,2013-02-20 23:14:00,
2013-02-20 17:24:00,19.7,9.5,30.36,NNW,344,4.0,6.0,64,0.00,,,0.00,0,Wunderground v.1.15,2013-02-20 23:24:00,
2013-02-20 17:34:00,19.2,9.0,30.37,NNW,347,4.0,4.0,64,0.00,,,0.00,0,Wunderground v.1.15,2013-02-20 23:34:00,
2013-02-20 17:44:00,18.8,8.6,30.37,North,0,4.0,7.0,64,0.00,,,0.00,0,Wunderground v.1.15,2013-02-20 23:44:00,
2013-02-20 17:54:00,18.6,8.1,30.37,North,0,5.0,5.0,63,0.00,,,0.00,0,Wunderground v.1.15,2013-02-20 23:54:00,
2013-02-20 18:04:00,18.3,8.1,30.37,North,0,6.0,6.0,64,0.00,,,0.00,0,Wunderground v.1.15,2013-02-21 00:04:00,
2013-02-20 18:14:00,18.0,7.9,30.37,North,0,4.0,4.0,64,0.00,,,0.00,0,Wunderground v.1.15,2013-02-21 00:14:00,
2013-02-20 18:24:00,17.5,7.7,30.38,North,8,4.0,5.0,65,0.00,,,0.00,0,Wunderground v.1.15,2013-02-21 00:24:00,
2013-02-20 18:34:00,17.2,7.8,30.38,North,11,5.0,5.0,66,0.00,,,0.00,0,Wunderground v.1.15,2013-02-21 00:34:00,
2013-02-20 18:44:00,17.2,7.8,30.38,North,1,5.0,5.0,66,0.00,,,0.00,0,Wunderground v.1.15,2013-02-21 00:44:00,
2013-02-20 18:54:00,17.0,7.6,30.38,NNE,32,5.0,6.0,66,0.00,,,0.00,0,Wunderground v.1.15,2013-02-21 00:54:00,
2013-02-20 19:04:00,16.5,7.1,30.39,NNE,24,5.0,7.0,66,0.00,,,0.00,0,Wunderground v.1.15,2013-02-21 01:04:00,
2013-02-20 19:14:00,16.4,7.3,30.39,NNE,20,7.0,10.0,67,0.00,,,0.00,0,Wunderground v.1.15,2013-02-21 01:14:00,
2013-02-20 19:24:00,16.1,7.1,30.39,NNE,20,5.0,5.0,67,0.00,,,0.00,0,Wunderground v.1.15,2013-02-21 01:24:00,
2013-02-20 19:34:00,15.7,7.0,30.39,NNE,18,5.0,5.0,68,0.00,,,0.00,0,Wunderground v.1.15,2013-02-21 01:34:00,
2013-02-20 19:44:00,15.6,6.9,30.39,NNE,18,4.0,4.0,68,0.00,,,0.00,0,Wunderground v.1.15,2013-02-21 01:44:00,
2013-02-20 19:54:00,15.4,6.7,30.40,NNE,30,6.0,6.0,68,0.00,,,0.00,0,Wunderground v.1.15,2013-02-21 01:54:00,
2013-02-20 20:04:00,15.2,6.5,30.40,NNE,14,6.0,7.0,68,0.00,,,0.00,0,Wunderground v.1.15,2013-02-21 02:04:00,
2013-02-20 20:14:00,15.4,6.7,30.40,North,0,6.0,7.0,68,0.00,,,0.00,0,Wunderground v.1.15,2013-02-21 02:14:00,
2013-02-20 20:24:00,15.1,6.8,30.40,NNE,14,5.0,8.0,69,0.00,,,0.00,0,Wunderground v.1.15,2013-02-21 02:24:00,
2013-02-20 20:34:00,14.9,6.6,30.40,NE,37,7.0,9.0,69,0.00,,,0.00,0,Wunderground v.1.15,2013-02-21 02:34:00,
2013-02-20 20:44:00,14.8,6.5,30.40,North,1,8.0,8.0,69,0.00,,,0.00,0,Wunderground v.1.15,2013-02-21 02:44:00,
2013-02-20 20:54:00,14.4,6.4,30.40,North,0,8.0,8.0,70,0.00,,,0.00,0,Wunderground v.1.15,2013-02-21 02:54:00,
2013-02-20 21:04:00,14.1,6.4,30.40,North,359,8.0,12.0,71,0.00,,,0.00,0,Wunderground v.1.15,2013-02-21 03:04:00,
2013-02-20 21:14:00,14.1,6.4,30.40,NNW,343,9.0,10.0,71,0.00,,,0.00,0,Wunderground v.1.15,2013-02-21 03:14:00,
2013-02-20 21:24:00,14.1,6.4,30.40,NNW,330,8.0,10.0,71,0.00,,,0.00,0,Wunderground v.1.15,2013-02-21 03:24:00,
2013-02-20 21:34:00,14.0,6.6,30.41,North,353,9.0,9.0,72,0.00,,,0.00,0,Wunderground v.1.15,2013-02-21 03:34:00,
2013-02-20 21:44:00,14.0,6.9,30.41,NNW,344,8.0,8.0,73,0.00,,,0.00,0,Wunderground v.1.15,2013-02-21 03:44:00,
2013-02-20 21:54:00,13.8,6.7,30.40,North,359,9.0,9.0,73,0.00,,,0.00,0,Wunderground v.1.15,2013-02-21 03:54:00,
2013-02-20 22:14:00,13.5,6.8,30.40,North,11,9.0,9.0,74,0.00,,,0.00,0,Wunderground v.1.15,2013-02-21 04:14:00,
2013-02-20 22:24:00,13.5,6.8,30.40,North,0,7.0,7.0,74,0.00,,,0.00,0,Wunderground v.1.15,2013-02-21 04:24:00,
2013-02-20 22:34:00,13.3,6.6,30.40,NNW,337,8.0,8.0,74,0.00,,,0.00,0,Wunderground v.1.15,2013-02-21 04:34:00,
2013-02-20 22:44:00,13.1,6.4,30.40,North,359,8.0,8.0,74,0.00,,,0.00,0,Wunderground v.1.15,2013-02-21 04:44:00,
2013-02-20 22:54:00,12.9,6.5,30.39,NNW,342,7.0,7.0,75,0.00,,,0.00,0,Wunderground v.1.15,2013-02-21 04:54:00,
2013-02-20 23:04:00,12.4,6.0,30.39,North,350,6.0,6.0,75,0.00,,,0.00,0,Wunderground v.1.15,2013-02-21 05:04:00,
2013-02-20 23:14:00,11.9,6.1,30.39,NW,326,5.0,8.0,77,0.00,,,0.00,0,Wunderground v.1.15,2013-02-21 05:14:00,
2013-02-20 23:24:00,11.4,5.6,30.39,North,357,5.0,5.0,77,0.00,,,0.00,0,Wunderground v.1.15,2013-02-21 05:24:00,
2013-02-20 23:34:00,10.9,5.4,30.40,NNW,340,3.0,3.0,78,0.00,,,0.00,0,Wunderground v.1.15,2013-02-21 05:34:00,
2013-02-20 23:44:00,10.4,4.9,30.40,NNW,336,3.0,3.0,78,0.00,,,0.00,0,Wunderground v.1.15,2013-02-21 05:44:00,
2013-02-20 23:54:00,10.0,4.8,30.40,NNW,333,2.0,6.0,79,0.00,,,0.00,0,Wunderground v.1.15,2013-02-21 05:54:00,